createdAt,value
2018-06-04T00:00:41.565Z,84.11
2018-06-04T00:03:10.417Z,84.11
2018-06-04T00:05:39.251Z,84.17
2018-06-04T00:08:08.431Z,84.38
2018-06-04T00:10:37.337Z,84.37
2018-06-04T00:13:06.275Z,84.52
2018-06-04T00:15:35.131Z,84.87
2018-06-04T00:18:03.998Z,85.18
2018-06-04T00:20:32.931Z,85.27
2018-06-04T00:23:01.740Z,85.32
2018-06-04T00:25:30.596Z,85.06
2018-06-04T00:27:59.465Z,85.26
2018-06-04T00:30:28.333Z,84.84
2018-06-04T00:32:57.230Z,84.85
2018-06-04T00:35:26.105Z,84.91
2018-06-04T00:37:54.959Z,85.06
2018-06-04T00:40:23.800Z,84.93
2018-06-04T00:42:52.663Z,84.81
2018-06-04T00:45:21.526Z,84.75
2018-06-04T00:47:50.434Z,84.74
2018-06-04T00:50:19.292Z,84.77
2018-06-04T00:52:48.153Z,84.53
2018-06-04T00:55:16.958Z,84.55
2018-06-04T00:57:45.822Z,84.67
2018-06-04T01:00:14.705Z,84.79
2018-06-04T01:02:43.602Z,85.17
2018-06-04T01:05:12.462Z,84.85
2018-06-04T01:07:41.431Z,85.08
2018-06-04T01:10:10.382Z,85.01
2018-06-04T01:12:39.275Z,85.36
2018-06-04T01:15:08.149Z,85.17
2018-06-04T01:17:37.035Z,85.12
2018-06-04T01:20:05.956Z,85.16
2018-06-04T01:22:34.815Z,85.11
2018-06-04T01:25:03.672Z,84.89
2018-06-04T01:27:32.511Z,84.99
2018-06-04T01:30:01.392Z,84.86
2018-06-04T01:32:30.248Z,85.17
2018-06-04T01:34:59.074Z,84.71
2018-06-04T01:37:27.920Z,84.69
2018-06-04T01:39:56.785Z,84.80
2018-06-04T01:42:25.630Z,84.44
2018-06-04T01:44:54.501Z,84.48
2018-06-04T01:47:23.333Z,84.54
2018-06-04T01:49:52.217Z,84.20
2018-06-04T01:52:21.113Z,84.47
2018-06-04T01:54:49.932Z,84.03
2018-06-04T01:57:18.766Z,83.70
2018-06-04T01:59:47.619Z,83.15
2018-06-04T02:02:16.446Z,83.66
2018-06-04T02:04:45.369Z,83.60
2018-06-04T02:07:14.235Z,83.11
2018-06-04T02:09:43.131Z,82.75
2018-06-04T02:12:12.000Z,82.51
2018-06-04T02:14:40.890Z,82.60
2018-06-04T02:17:09.805Z,82.50
2018-06-04T02:19:38.658Z,82.02
2018-06-04T02:22:07.528Z,82.46
2018-06-04T02:24:36.415Z,82.28
2018-06-04T02:27:05.259Z,82.33
2018-06-04T02:29:34.138Z,82.46
2018-06-04T02:32:03.034Z,82.40
2018-06-04T02:34:31.882Z,82.23
2018-06-04T02:37:00.723Z,82.07
2018-06-04T02:39:29.590Z,81.86
2018-06-04T02:41:58.414Z,81.99
2018-06-04T02:44:27.253Z,82.31
2018-06-04T02:46:56.136Z,81.75
2018-06-04T02:49:25.023Z,82.17
2018-06-04T02:51:53.956Z,81.87
2018-06-04T02:54:22.867Z,82.24
2018-06-04T02:56:51.734Z,82.09
2018-06-04T02:59:20.558Z,81.92
2018-06-04T03:01:49.472Z,82.04
2018-06-04T03:04:18.340Z,82.43
2018-06-04T03:06:47.190Z,82.02
2018-06-04T03:09:16.076Z,82.26
2018-06-04T03:11:44.918Z,82.40
2018-06-04T03:14:13.779Z,82.36
2018-06-04T03:16:42.806Z,82.18
2018-06-04T03:19:11.663Z,82.18
2018-06-04T03:21:40.526Z,82.04
2018-06-04T03:24:09.458Z,82.10
2018-06-04T03:26:38.370Z,82.05
2018-06-04T03:29:07.197Z,82.46
2018-06-04T03:31:36.223Z,82.28
2018-06-04T03:34:05.098Z,82.60
2018-06-04T03:36:34.014Z,82.29
2018-06-04T03:39:03.009Z,82.41
2018-06-04T03:41:31.899Z,82.59
2018-06-04T03:44:00.765Z,82.87
2018-06-04T03:46:29.655Z,82.29
2018-06-04T03:48:58.909Z,82.22
2018-06-04T03:51:27.750Z,82.29
2018-06-04T03:53:56.633Z,82.18
2018-06-04T03:56:25.500Z,82.01
2018-06-04T03:58:54.450Z,81.57
2018-06-04T04:01:23.324Z,81.80
2018-06-04T04:03:52.205Z,82.08
2018-06-04T04:06:21.049Z,81.46
2018-06-04T04:08:49.999Z,81.69
2018-06-04T04:11:19.022Z,81.37
2018-06-04T04:13:47.925Z,81.37
2018-06-04T04:16:16.774Z,81.29
2018-06-04T04:18:45.704Z,81.52
2018-06-04T04:21:14.580Z,81.35
2018-06-04T04:23:43.505Z,80.75
2018-06-04T04:26:12.395Z,81.54
2018-06-04T04:28:46.504Z,81.00
2018-06-04T04:31:15.429Z,80.63
2018-06-04T04:33:44.326Z,80.75
2018-06-04T04:36:13.215Z,80.36
2018-06-04T04:38:42.111Z,80.12
2018-06-04T04:41:10.994Z,80.42
2018-06-04T04:43:39.854Z,80.02
2018-06-04T04:46:08.759Z,80.35
2018-06-04T04:48:37.636Z,79.81
2018-06-04T04:51:06.626Z,79.44
2018-06-04T04:53:35.573Z,80.01
2018-06-04T04:56:04.459Z,79.17
2018-06-04T04:58:33.335Z,79.30
2018-06-04T05:01:02.241Z,79.04
2018-06-04T05:03:31.134Z,78.97
2018-06-04T05:06:00.029Z,79.52
2018-06-04T05:08:28.984Z,79.78
2018-06-04T05:10:57.891Z,79.87
2018-06-04T05:13:27.968Z,79.96
2018-06-04T05:15:56.832Z,79.78
2018-06-04T05:18:27.259Z,79.65
2018-06-04T05:20:56.700Z,80.01
2018-06-04T05:23:26.387Z,79.39
2018-06-04T05:25:55.282Z,79.64
2018-06-04T05:28:24.217Z,79.51
2018-06-04T05:30:53.468Z,78.86
2018-06-04T05:33:22.934Z,79.45
2018-06-04T05:35:51.802Z,79.12
2018-06-04T05:38:20.780Z,79.35
2018-06-04T05:40:49.662Z,78.39
2018-06-04T05:43:18.520Z,78.80
2018-06-04T05:45:47.344Z,78.98
2018-06-04T05:48:16.202Z,78.67
2018-06-04T05:50:45.117Z,78.67
2018-06-04T05:53:14.018Z,78.96
2018-06-04T05:55:42.930Z,78.96
2018-06-04T05:58:12.869Z,78.71
2018-06-04T06:00:41.789Z,79.12
2018-06-04T06:03:10.811Z,79.06
2018-06-04T06:05:39.694Z,78.82
2018-06-04T06:08:08.567Z,78.55
2018-06-04T06:10:37.561Z,78.71
2018-06-04T06:13:06.473Z,78.85
2018-06-04T06:15:35.365Z,78.18
2018-06-04T06:18:04.300Z,78.30
2018-06-04T06:20:33.214Z,79.07
2018-06-04T06:23:02.124Z,78.51
2018-06-04T06:25:31.024Z,79.03
2018-06-04T06:28:03.627Z,78.99
2018-06-04T06:30:32.590Z,78.66
2018-06-04T06:33:01.559Z,78.76
2018-06-04T06:35:30.866Z,78.86
2018-06-04T06:37:59.774Z,78.73
2018-06-04T06:40:30.184Z,78.47
2018-06-04T06:42:59.137Z,78.35
2018-06-04T06:45:28.026Z,78.48
2018-06-04T06:47:56.927Z,79.12
2018-06-04T06:50:26.885Z,78.88
2018-06-04T06:52:55.789Z,78.35
2018-06-04T06:55:24.749Z,78.38
2018-06-04T06:57:53.714Z,78.92
2018-06-04T07:00:22.623Z,77.90
2018-06-04T07:02:51.604Z,77.75
2018-06-04T07:05:20.560Z,77.25
2018-06-04T07:07:49.412Z,78.31
2018-06-04T07:10:18.330Z,77.51
2018-06-04T07:12:47.200Z,77.34
2018-06-04T07:15:16.104Z,77.11
2018-06-04T07:17:44.949Z,76.88
2018-06-04T07:20:13.815Z,76.49
2018-06-04T07:22:42.673Z,76.93
2018-06-04T07:25:11.632Z,76.67
2018-06-04T07:27:40.594Z,76.33
2018-06-04T07:30:09.449Z,76.95
2018-06-04T07:32:38.339Z,77.17
2018-06-04T07:35:07.311Z,77.57
2018-06-04T07:37:36.171Z,77.55
2018-06-04T07:40:05.676Z,78.41
2018-06-04T07:42:34.548Z,78.18
2018-06-04T07:45:03.494Z,78.87
2018-06-04T07:47:33.302Z,78.47
2018-06-04T07:50:02.736Z,77.86
2018-06-04T07:52:31.556Z,77.53
2018-06-04T07:55:00.423Z,78.90
2018-06-04T07:57:29.264Z,77.49
2018-06-04T07:59:58.189Z,77.91
2018-06-04T08:02:27.097Z,76.93
2018-06-04T08:04:55.987Z,76.17
2018-06-04T08:07:24.925Z,75.62
2018-06-04T08:09:53.819Z,74.65
2018-06-04T08:12:22.653Z,74.11
2018-06-04T08:14:51.587Z,73.73
2018-06-04T08:17:20.456Z,75.14
2018-06-04T08:19:49.397Z,74.41
2018-06-04T08:22:18.913Z,74.23
2018-06-04T08:24:47.830Z,74.55
2018-06-04T08:27:16.678Z,74.29
2018-06-04T08:29:45.538Z,74.47
2018-06-04T08:32:14.412Z,74.30
2018-06-04T08:34:43.253Z,74.36
2018-06-04T08:37:12.137Z,75.76
2018-06-04T08:39:40.999Z,75.76
2018-06-04T08:42:09.857Z,76.32
2018-06-04T08:44:38.750Z,77.37
2018-06-04T08:47:07.652Z,76.51
2018-06-04T08:49:36.540Z,76.43
2018-06-04T08:52:05.465Z,76.69
2018-06-04T08:54:34.340Z,76.12
2018-06-04T08:57:03.232Z,76.02
2018-06-04T08:59:32.108Z,76.07
2018-06-04T09:02:01.003Z,75.68
2018-06-04T09:04:29.860Z,75.78
2018-06-04T09:06:58.677Z,75.42
2018-06-04T09:09:27.534Z,74.73
2018-06-04T09:11:56.398Z,75.59
2018-06-04T09:14:25.396Z,75.77
2018-06-04T09:16:54.286Z,74.21
2018-06-04T09:19:23.129Z,73.87
2018-06-04T09:21:51.970Z,74.52
2018-06-04T09:24:20.832Z,74.35
2018-06-04T09:26:49.692Z,75.85
2018-06-04T09:29:18.568Z,74.79
2018-06-04T09:31:47.402Z,75.29
2018-06-04T09:34:16.290Z,75.30
2018-06-04T09:36:45.133Z,74.70
2018-06-04T09:39:14.014Z,74.27
2018-06-04T09:41:42.880Z,73.35
2018-06-04T09:44:11.778Z,73.20
2018-06-04T09:46:40.650Z,72.21
2018-06-04T09:49:09.545Z,72.49
2018-06-04T09:51:38.430Z,72.46
2018-06-04T09:54:07.324Z,71.88
2018-06-04T09:56:36.168Z,71.11
2018-06-04T09:59:11.101Z,70.94
2018-06-04T10:01:39.923Z,72.45
2018-06-04T10:04:08.768Z,72.10
2018-06-04T10:06:37.597Z,71.63
2018-06-04T10:09:08.483Z,72.24
2018-06-04T10:11:37.336Z,72.13
2018-06-04T10:14:06.446Z,72.69
2018-06-04T10:16:35.401Z,72.47
2018-06-04T10:19:04.254Z,71.76
2018-06-04T10:21:33.221Z,72.39
2018-06-04T10:24:02.106Z,72.47
2018-06-04T10:26:30.968Z,72.95
2018-06-04T10:28:59.883Z,73.09
2018-06-04T10:31:28.707Z,71.67
2018-06-04T10:33:57.572Z,71.73
2018-06-04T10:36:26.442Z,72.23
2018-06-04T10:38:55.315Z,73.33
2018-06-04T10:41:24.196Z,72.01
2018-06-04T10:43:53.126Z,72.77
2018-06-04T10:46:21.963Z,72.08
2018-06-04T10:48:50.861Z,72.81
2018-06-04T10:51:19.704Z,72.25
2018-06-04T10:53:48.540Z,71.91
2018-06-04T10:56:17.421Z,72.99
2018-06-04T10:58:46.268Z,72.67
2018-06-04T11:01:15.123Z,72.68
2018-06-04T11:03:43.957Z,73.55
2018-06-04T11:06:12.821Z,73.41
2018-06-04T11:08:41.770Z,73.51
2018-06-04T11:11:10.665Z,73.99
2018-06-04T11:13:39.570Z,73.57
2018-06-04T11:16:08.415Z,73.78
2018-06-04T11:18:40.134Z,73.46
2018-06-04T11:21:09.021Z,73.35
2018-06-04T11:23:37.873Z,73.81
2018-06-04T11:26:06.756Z,73.60
2018-06-04T11:28:35.607Z,73.75
2018-06-04T11:31:04.441Z,74.00
2018-06-04T11:33:33.376Z,73.61
2018-06-04T11:36:02.207Z,74.07
2018-06-04T11:38:31.127Z,74.02
2018-06-04T11:41:00.008Z,74.43
2018-06-04T11:43:28.846Z,74.80
2018-06-04T11:45:57.729Z,73.87
2018-06-04T11:48:26.601Z,73.88
2018-06-04T11:50:55.490Z,74.03
2018-06-04T11:53:24.390Z,73.72
2018-06-04T11:55:53.219Z,73.41
2018-06-04T11:58:22.071Z,72.88
2018-06-04T12:00:50.945Z,73.83
2018-06-04T12:03:19.766Z,72.77
2018-06-04T12:05:48.666Z,72.78
2018-06-04T12:08:17.530Z,71.37
2018-06-04T12:10:46.363Z,69.49
2018-06-04T12:13:15.229Z,69.61
2018-06-04T12:15:44.138Z,70.30
2018-06-04T12:18:14.153Z,69.94
2018-06-04T12:20:43.014Z,70.65
2018-06-04T12:23:12.015Z,71.17
2018-06-04T12:25:40.853Z,71.18
2018-06-04T12:28:10.892Z,71.95
2018-06-04T12:30:39.728Z,72.32
2018-06-04T12:33:08.645Z,71.74
2018-06-04T12:35:37.507Z,72.10
2018-06-04T12:38:06.398Z,72.12
2018-06-04T12:40:35.254Z,72.69
2018-06-04T12:43:04.090Z,73.12
2018-06-04T12:45:32.973Z,72.12
2018-06-04T12:48:01.844Z,72.03
2018-06-04T12:50:30.719Z,72.25
2018-06-04T12:52:59.598Z,72.83
2018-06-04T12:55:28.548Z,73.13
2018-06-04T12:57:57.447Z,72.79
2018-06-04T13:00:26.363Z,73.07
2018-06-04T13:02:55.202Z,73.00
2018-06-04T13:05:24.049Z,73.38
2018-06-04T13:07:52.904Z,73.18
2018-06-04T13:10:21.806Z,72.77
2018-06-04T13:12:51.953Z,72.19
2018-06-04T13:15:20.847Z,72.91
2018-06-04T13:17:49.702Z,72.74
2018-06-04T13:20:18.613Z,72.68
2018-06-04T13:22:47.493Z,72.88
2018-06-04T13:25:16.360Z,72.84
2018-06-04T13:27:45.265Z,73.05
2018-06-04T13:30:14.264Z,73.03
2018-06-04T13:32:43.136Z,72.79
2018-06-04T13:35:11.994Z,72.19
2018-06-04T13:37:40.897Z,72.05
2018-06-04T13:40:09.753Z,72.38
2018-06-04T13:42:38.611Z,72.27
2018-06-04T13:45:07.488Z,72.70
2018-06-04T13:47:36.321Z,70.77
2018-06-04T13:50:05.214Z,72.73
2018-06-04T13:52:34.096Z,73.32
2018-06-04T13:55:02.964Z,72.71
2018-06-04T13:57:31.796Z,72.50
2018-06-04T14:00:00.740Z,73.11
2018-06-04T14:02:29.538Z,72.39
2018-06-04T14:04:58.432Z,71.98
2018-06-04T14:07:27.482Z,71.73
2018-06-04T14:09:56.396Z,72.19
2018-06-04T14:12:25.241Z,72.83
2018-06-04T14:14:54.093Z,71.41
2018-06-04T14:17:22.953Z,71.58
2018-06-04T14:19:52.081Z,71.54
2018-06-04T14:22:20.964Z,70.95
2018-06-04T14:24:49.839Z,71.80
2018-06-04T14:27:19.267Z,71.42
2018-06-04T14:29:48.142Z,72.10
2018-06-04T14:32:17.001Z,71.82
2018-06-04T14:34:45.837Z,71.71
2018-06-04T14:37:14.716Z,71.70
2018-06-04T14:39:43.573Z,71.67
2018-06-04T14:42:12.512Z,72.86
2018-06-04T14:44:41.419Z,72.84
2018-06-04T14:47:10.299Z,72.86
2018-06-04T14:49:39.300Z,73.05
2018-06-04T14:52:08.283Z,72.65
2018-06-04T14:54:37.130Z,70.89
2018-06-04T14:57:06.119Z,72.27
2018-06-04T14:59:34.993Z,71.82
2018-06-04T15:02:03.915Z,71.24
2018-06-04T15:04:32.810Z,71.40
2018-06-04T15:07:01.796Z,69.33
2018-06-04T15:09:30.722Z,69.78
2018-06-04T15:11:59.688Z,69.31
2018-06-04T15:14:28.535Z,69.34
2018-06-04T15:16:58.007Z,68.70
2018-06-04T15:19:26.901Z,67.84
2018-06-04T15:21:56.210Z,68.89
2018-06-04T15:24:25.076Z,68.30
2018-06-04T15:26:53.929Z,68.02
2018-06-04T15:29:22.883Z,68.13
2018-06-04T15:31:51.773Z,67.17
2018-06-04T15:34:20.647Z,68.12
2018-06-04T15:36:49.639Z,68.68
2018-06-04T15:39:18.526Z,67.83
2018-06-04T15:41:47.562Z,68.21
2018-06-04T15:44:16.597Z,68.74
2018-06-04T15:46:45.580Z,69.04
2018-06-04T15:49:14.464Z,68.78
2018-06-04T15:51:43.318Z,68.66
2018-06-04T15:54:12.210Z,69.48
2018-06-04T15:56:41.093Z,68.44
2018-06-04T15:59:11.894Z,68.00
2018-06-04T16:01:40.745Z,67.46
2018-06-04T16:04:09.626Z,67.74
2018-06-04T16:06:38.547Z,68.03
2018-06-04T16:09:08.339Z,67.19
2018-06-04T16:11:37.186Z,66.89
2018-06-04T16:14:06.059Z,66.58
2018-06-04T16:16:35.010Z,67.47
2018-06-04T16:19:03.992Z,67.50
2018-06-04T16:21:33.036Z,67.77
2018-06-04T16:24:02.022Z,66.72
2018-06-04T16:26:31.003Z,67.48
2018-06-04T16:28:59.850Z,68.67
2018-06-04T16:31:28.796Z,68.39
2018-06-04T16:33:57.671Z,67.52
2018-06-04T16:36:26.553Z,68.53
2018-06-04T16:38:55.441Z,66.35
2018-06-04T16:41:24.561Z,67.87
2018-06-04T16:43:53.453Z,67.96
2018-06-04T16:46:22.379Z,68.65
2018-06-04T16:48:51.389Z,68.77
2018-06-04T16:51:20.340Z,69.37
2018-06-04T16:53:49.673Z,69.25
2018-06-04T16:56:18.604Z,68.86
2018-06-04T16:58:47.514Z,68.91
2018-06-04T17:01:16.556Z,69.10
2018-06-04T17:03:50.343Z,69.16
2018-06-04T17:06:27.089Z,69.50
2018-06-04T17:09:06.617Z,70.18
2018-06-04T17:11:35.880Z,69.84
2018-06-04T17:14:04.878Z,69.83
2018-06-04T17:16:33.853Z,69.55
2018-06-04T17:19:02.697Z,69.49
2018-06-04T17:21:31.601Z,69.05
2018-06-04T17:24:00.517Z,69.82
2018-06-04T17:26:29.724Z,69.76
2018-06-04T17:28:58.638Z,70.14
2018-06-04T17:31:27.533Z,71.04
2018-06-04T17:33:56.573Z,70.74
2018-06-04T17:36:26.153Z,70.49
2018-06-04T17:38:55.079Z,70.38
2018-06-04T17:41:24.244Z,71.01
2018-06-04T17:43:53.170Z,70.55
2018-06-04T17:46:22.069Z,71.22
2018-06-04T17:48:51.016Z,71.53
2018-06-04T17:51:19.959Z,70.92
2018-06-04T17:53:48.848Z,71.01
2018-06-04T17:56:17.837Z,70.72
2018-06-04T17:58:46.722Z,70.80
2018-06-04T18:01:15.717Z,70.21
2018-06-04T18:03:46.918Z,70.49
2018-06-04T18:06:15.961Z,71.45
2018-06-04T18:08:44.875Z,71.32
2018-06-04T18:11:13.802Z,71.02
2018-06-04T18:13:42.731Z,71.12
2018-06-04T18:16:12.235Z,71.17
2018-06-04T18:18:41.170Z,71.57
2018-06-04T18:21:11.425Z,71.47
2018-06-04T18:23:40.559Z,71.27
2018-06-04T18:26:09.457Z,71.85
2018-06-04T18:28:38.500Z,72.64
2018-06-04T18:31:07.965Z,71.48
2018-06-04T18:33:36.833Z,73.06
2018-06-04T18:36:05.684Z,72.47
2018-06-04T18:38:34.573Z,72.58
2018-06-04T18:41:03.498Z,72.73
2018-06-04T18:43:32.368Z,72.81
2018-06-04T18:46:01.269Z,72.16
2018-06-04T18:48:30.179Z,71.54
2018-06-04T18:50:59.120Z,71.68
2018-06-04T18:53:28.040Z,71.64
2018-06-04T18:55:56.962Z,72.15
2018-06-04T18:58:25.837Z,71.86
2018-06-04T19:00:55.721Z,72.16
2018-06-04T19:03:24.689Z,72.39
2018-06-04T19:05:53.590Z,73.38
2018-06-04T19:08:22.601Z,72.68
2018-06-04T19:10:51.471Z,72.57
2018-06-04T19:13:20.487Z,72.77
2018-06-04T19:15:49.391Z,72.62
2018-06-04T19:18:18.285Z,72.75
2018-06-04T19:20:47.248Z,72.30
2018-06-04T19:23:17.143Z,72.65
2018-06-04T19:25:46.305Z,73.61
2018-06-04T19:28:15.228Z,72.55
2018-06-04T19:30:44.197Z,72.45
2018-06-04T19:33:13.089Z,71.97
2018-06-04T19:35:42.017Z,72.49
2018-06-04T20:33:13.160Z,74.74
2018-06-04T20:35:42.118Z,74.40
2018-06-04T20:38:12.221Z,74.81
2018-06-04T20:40:41.065Z,74.62
2018-06-04T20:43:09.962Z,74.68
2018-06-04T20:45:38.846Z,75.13
2018-06-04T20:48:08.954Z,74.78
2018-06-04T20:50:37.911Z,75.03
2018-06-04T20:53:07.009Z,74.92
2018-06-04T20:55:35.932Z,74.52
2018-06-04T20:58:04.824Z,74.30
2018-06-04T21:00:33.716Z,74.83
2018-06-04T21:03:02.583Z,74.69
2018-06-04T21:05:31.517Z,74.91
2018-06-04T21:08:00.460Z,74.88
2018-06-04T21:10:29.341Z,74.56
2018-06-04T21:12:58.217Z,74.87
2018-06-04T21:15:27.096Z,74.94
2018-06-04T21:17:55.949Z,75.31
2018-06-04T21:20:24.821Z,75.71
2018-06-04T21:22:53.684Z,74.98
2018-06-04T21:25:22.541Z,75.25
2018-06-04T21:27:51.410Z,74.72
2018-06-04T21:30:20.289Z,74.64
2018-06-04T21:32:49.146Z,74.71
2018-06-04T21:35:17.990Z,74.51
2018-06-04T21:37:46.909Z,74.69
2018-06-04T21:40:15.817Z,74.83
2018-06-04T21:42:44.736Z,75.26
2018-06-04T21:45:13.613Z,74.66
2018-06-04T21:47:42.499Z,74.79
2018-06-04T21:50:11.432Z,74.91
2018-06-04T21:52:40.324Z,74.88
2018-06-04T21:55:09.235Z,75.57
2018-06-04T21:57:38.208Z,76.10
2018-06-04T22:00:09.846Z,75.62
2018-06-04T22:02:39.157Z,76.07
2018-06-04T22:05:08.093Z,75.64
2018-06-04T22:07:36.974Z,76.02
2018-06-04T22:10:06.577Z,76.04
2018-06-04T22:12:35.540Z,75.86
2018-06-04T22:15:04.562Z,75.47
2018-06-04T22:17:33.450Z,75.19
2018-06-04T22:20:02.395Z,75.49
2018-06-04T22:22:31.408Z,74.97
2018-06-04T22:25:00.315Z,75.24
2018-06-04T22:27:29.198Z,75.64
2018-06-04T22:29:58.131Z,75.66
2018-06-04T22:32:27.051Z,75.47
2018-06-04T22:34:55.931Z,75.77
2018-06-04T22:37:24.788Z,75.06
2018-06-04T22:39:53.659Z,74.92
2018-06-04T22:42:22.552Z,75.00
2018-06-04T22:44:51.443Z,75.60
2018-06-04T22:47:20.360Z,75.33
2018-06-04T22:49:49.226Z,75.41
2018-06-04T22:52:18.118Z,75.78
2018-06-04T22:54:46.993Z,74.76
2018-06-04T22:57:15.905Z,75.55
2018-06-04T22:59:44.786Z,75.58
2018-06-04T23:02:13.668Z,75.27
2018-06-04T23:04:42.571Z,75.54
2018-06-04T23:07:11.446Z,75.96
2018-06-04T23:09:40.291Z,75.81
2018-06-04T23:12:09.151Z,76.10
2018-06-04T23:14:38.013Z,76.28
2018-06-04T23:17:06.837Z,76.40
2018-06-04T23:19:35.718Z,76.24
2018-06-04T23:22:05.250Z,76.49
2018-06-04T23:24:34.952Z,76.33
2018-06-04T23:27:03.812Z,76.76
2018-06-04T23:29:32.682Z,76.96
2018-06-04T23:32:01.550Z,77.40
2018-06-04T23:34:30.503Z,77.78
2018-06-04T23:36:59.380Z,77.31
2018-06-04T23:39:28.228Z,78.54
2018-06-04T23:41:57.139Z,78.29
2018-06-04T23:44:26.024Z,78.68
2018-06-04T23:46:54.913Z,79.06
2018-06-04T23:49:26.674Z,79.08
2018-06-04T23:51:55.865Z,79.19
2018-06-04T23:54:24.738Z,78.98
2018-06-04T23:56:53.696Z,79.35
2018-06-04T23:59:22.555Z,79.27
